Time;durP1;ratioP1;P1;durP2;ratioP2;P2;SDS_P1;SDS_P2;PMS_P1;PMS_P2;Temp;Humidity;BMP_temperature;BMP_pressure;BME280_temperature;BME280_humidity;BME280_pressure;Samples;Min_cycle;Max_cycle;Signal;HPM_P1;HPM_P2
2022/09/07 00:01:40;;;;;;;5.47;2.30;;;;;;;;;;8261901;28;20402;-85
2022/09/07 00:05:43;;;;;;;4.65;2.10;;;;;;;;;;8250159;28;20463;-86
2022/09/07 00:09:47;;;;;;;5.93;2.47;;;;;;;;;;8263390;28;20042;-86
2022/09/07 00:13:50;;;;;;;5.28;2.40;;;;;;;;;;8264185;28;20073;-87
2022/09/07 00:17:52;;;;;;;5.32;2.65;;;;;;;;;;8254170;28;20039;-86
2022/09/07 00:21:54;;;;;;;3.85;2.15;;;;;;;;;;8248561;28;20042;-86
2022/09/07 00:26:03;;;;;;;5.57;2.63;;;;;;;;;;8267860;28;20066;-85
2022/09/07 00:30:07;;;;;;;5.13;2.60;;;;;;;;;;8278359;28;20053;-85
2022/09/07 00:34:10;;;;;;;3.67;2.25;;;;;;;;;;8284251;28;20097;-85
2022/09/07 00:38:13;;;;;;;6.88;2.83;;;;;;;;;;8289312;28;20120;-85
2022/09/07 00:42:19;;;;;;;4.90;2.90;;;;;;;;;;8273710;28;20062;-86
2022/09/07 00:46:24;;;;;;;5.20;1.95;;;;;;;;;;8269275;28;20114;-86
2022/09/07 00:50:31;;;;;;;4.20;2.10;;;;;;;;;;8278084;28;20042;-85
2022/09/07 00:54:39;;;;;;;3.88;2.03;;;;;;;;;;8282369;28;20038;-85
2022/09/07 00:58:43;;;;;;;10.38;2.42;;;;;;;;;;8282273;28;20049;-85
2022/09/07 01:02:49;;;;;;;6.60;2.60;;;;;;;;;;8279370;28;20045;-85
2022/09/07 01:06:53;;;;;;;5.22;2.28;;;;;;;;;;8292412;28;20402;-85
2022/09/07 01:10:58;;;;;;;4.50;2.22;;;;;;;;;;8294977;28;20050;-85
2022/09/07 01:15:02;;;;;;;3.97;2.40;;;;;;;;;;8273531;28;20053;-85
2022/09/07 01:19:37;;;;;;;3.70;2.20;;;;;;;;;;8284466;28;20045;-85
2022/09/07 01:24:23;;;;;;;3.60;2.10;;;;;;;;;;8283836;28;20133;-85
2022/09/07 01:28:28;;;;;;;5.45;2.65;;;;;;;;;;8275348;28;20049;-86
2022/09/07 01:32:44;;;;;;;3.40;2.17;;;;;;;;;;8284533;28;20045;-85
2022/09/07 01:36:52;;;;;;;4.03;2.30;;;;;;;;;;8278599;28;20046;-85
2022/09/07 01:41:00;;;;;;;4.10;2.47;;;;;;;;;;8291758;28;20041;-85
2022/09/07 01:45:10;;;;;;;5.13;2.75;;;;;;;;;;8288835;28;20081;-85
2022/09/07 01:49:19;;;;;;;4.65;2.30;;;;;;;;;;8272076;28;20046;-85
2022/09/07 01:53:26;;;;;;;4.35;2.55;;;;;;;;;;8266534;28;20051;-87
2022/09/07 01:57:36;;;;;;;4.45;2.17;;;;;;;;;;8283642;28;20428;-85
2022/09/07 02:01:47;;;;;;;4.97;2.53;;;;;;;;;;8289851;28;20108;-85
2022/09/07 02:05:57;;;;;;;3.30;2.17;;;;;;;;;;8293994;28;20548;-85
2022/09/07 02:10:02;;;;;;;5.00;2.30;;;;;;;;;;8272008;28;20124;-86
2022/09/07 02:14:09;;;;;;;19.00;10.60;;;;;;;;;;8284559;28;20054;-85
2022/09/07 02:18:14;;;;;;;105.75;64.70;;;;;;;;;;8279576;28;20050;-85
2022/09/07 02:22:21;;;;;;;75.75;47.38;;;;;;;;;;8279201;28;20453;-85
2022/09/07 02:26:28;;;;;;;45.35;29.17;;;;;;;;;;8283666;28;20042;-84
2022/09/07 02:30:31;;;;;;;18.27;11.07;;;;;;;;;;8288727;28;20052;-85
2022/09/07 02:34:35;;;;;;;7.38;4.28;;;;;;;;;;8297325;28;20049;-85
2022/09/07 02:38:38;;;;;;;9.52;5.65;;;;;;;;;;8299932;28;20516;-85
2022/09/07 02:42:42;;;;;;;4.90;2.67;;;;;;;;;;8285128;28;20418;-85
2022/09/07 02:47:05;;;;;;;4.85;2.42;;;;;;;;;;8289661;28;20088;-84
2022/09/07 02:51:17;;;;;;;6.25;2.60;;;;;;;;;;8290885;28;20410;-85
2022/09/07 02:55:29;;;;;;;4.25;2.50;;;;;;;;;;8282094;28;20049;-85
2022/09/07 02:59:49;;;;;;;6.93;2.88;;;;;;;;;;8283528;28;20054;-83
2022/09/07 03:04:00;;;;;;;3.55;2.35;;;;;;;;;;8269843;28;20068;-85
2022/09/07 03:08:09;;;;;;;6.53;2.72;;;;;;;;;;8287466;28;20041;-84
2022/09/07 03:12:13;;;;;;;5.45;2.63;;;;;;;;;;8291070;28;20045;-84
2022/09/07 03:16:16;;;;;;;5.50;2.88;;;;;;;;;;8294306;28;20046;-85
2022/09/07 03:20:20;;;;;;;5.60;3.15;;;;;;;;;;8295090;28;20390;-85
2022/09/07 03:24:24;;;;;;;8.07;3.42;;;;;;;;;;8298950;28;20057;-84
2022/09/07 03:28:26;;;;;;;9.10;2.97;;;;;;;;;;8280587;28;20049;-85
2022/09/07 03:32:31;;;;;;;6.55;3.10;;;;;;;;;;8297046;28;20050;-85
2022/09/07 03:36:34;;;;;;;9.93;3.55;;;;;;;;;;8274480;28;20057;-85
2022/09/07 03:40:37;;;;;;;8.38;3.13;;;;;;;;;;8276108;28;20042;-86
2022/09/07 03:44:40;;;;;;;6.78;2.92;;;;;;;;;;8287694;28;20413;-84
2022/09/07 03:48:42;;;;;;;8.25;2.83;;;;;;;;;;8284923;28;20054;-86
2022/09/07 03:52:45;;;;;;;8.10;3.42;;;;;;;;;;8269364;28;20050;-84
2022/09/07 03:56:49;;;;;;;6.25;3.15;;;;;;;;;;8273375;28;20046;-86
2022/09/07 04:00:51;;;;;;;5.40;3.22;;;;;;;;;;8254191;28;20454;-85
2022/09/07 04:04:54;;;;;;;6.30;2.70;;;;;;;;;;8246939;28;20049;-84
2022/09/07 04:08:56;;;;;;;4.63;2.47;;;;;;;;;;8243761;28;20042;-86
2022/09/07 04:13:00;;;;;;;6.50;2.92;;;;;;;;;;8243979;28;20043;-85
2022/09/07 04:17:03;;;;;;;5.82;2.90;;;;;;;;;;8254400;28;20046;-86
2022/09/07 04:21:08;;;;;;;7.72;4.30;;;;;;;;;;8259258;28;20046;-85
2022/09/07 04:25:11;;;;;;;10.63;4.43;;;;;;;;;;8262275;28;21076;-85
2022/09/07 04:29:15;;;;;;;10.35;4.30;;;;;;;;;;8254537;28;20052;-87
2022/09/07 04:33:17;;;;;;;11.45;6.53;;;;;;;;;;8250596;28;20084;-85
2022/09/07 04:37:20;;;;;;;20.92;14.27;;;;;;;;;;8262110;28;20054;-85
2022/09/07 04:41:23;;;;;;;9.23;5.85;;;;;;;;;;8275791;28;20046;-86
2022/09/07 04:45:27;;;;;;;12.57;6.53;;;;;;;;;;8259881;28;20421;-85
2022/09/07 04:49:29;;;;;;;8.00;4.03;;;;;;;;;;8272336;28;20474;-85
2022/09/07 04:53:32;;;;;;;12.75;6.47;;;;;;;;;;8268156;28;20042;-85
2022/09/07 04:57:35;;;;;;;38.42;17.48;;;;;;;;;;8288897;28;20050;-85
2022/09/07 05:01:38;;;;;;;26.45;13.18;;;;;;;;;;8263917;28;20060;-85
2022/09/07 05:05:41;;;;;;;10.07;6.25;;;;;;;;;;8255188;28;20410;-85
2022/09/07 05:09:44;;;;;;;16.58;8.93;;;;;;;;;;8265523;28;20046;-85
2022/09/07 05:13:46;;;;;;;13.93;5.97;;;;;;;;;;8258827;28;20709;-86
2022/09/07 05:17:51;;;;;;;12.82;6.65;;;;;;;;;;8263312;28;20047;-85
2022/09/07 05:21:53;;;;;;;8.50;4.88;;;;;;;;;;8271415;28;20042;-85
2022/09/07 05:25:56;;;;;;;11.77;4.03;;;;;;;;;;8276629;28;20410;-84
2022/09/07 05:29:58;;;;;;;17.58;4.15;;;;;;;;;;8263771;28;20054;-85
2022/09/07 05:34:02;;;;;;;14.02;3.85;;;;;;;;;;8251104;28;20468;-86
2022/09/07 05:38:05;;;;;;;13.88;3.78;;;;;;;;;;8264060;28;20170;-85
2022/09/07 05:42:08;;;;;;;9.48;3.83;;;;;;;;;;8284859;28;20383;-84
2022/09/07 05:46:11;;;;;;;6.55;3.20;;;;;;;;;;8284103;28;20470;-84
2022/09/07 05:50:16;;;;;;;6.38;3.60;;;;;;;;;;8287691;28;20050;-85
2022/09/07 05:54:18;;;;;;;8.13;3.40;;;;;;;;;;8279335;28;20116;-85
2022/09/07 05:58:20;;;;;;;7.15;3.50;;;;;;;;;;8258392;28;20054;-86
2022/09/07 06:02:23;;;;;;;8.50;3.30;;;;;;;;;;8254007;28;20046;-86
2022/09/07 06:06:27;;;;;;;7.55;3.53;;;;;;;;;;8256196;28;20470;-86
2022/09/07 06:10:34;;;;;;;8.73;3.58;;;;;;;;;;8262116;28;20552;-86
2022/09/07 06:14:37;;;;;;;7.80;3.60;;;;;;;;;;8262930;28;20108;-86
2022/09/07 06:18:43;;;;;;;6.20;3.20;;;;;;;;;;8276559;28;20137;-86
2022/09/07 06:22:47;;;;;;;8.93;4.07;;;;;;;;;;8266025;28;20060;-87
2022/09/07 06:26:49;;;;;;;8.90;3.70;;;;;;;;;;8254677;28;20051;-86
2022/09/07 06:30:52;;;;;;;8.75;3.42;;;;;;;;;;8257987;28;20550;-86
2022/09/07 06:34:54;;;;;;;10.65;4.65;;;;;;;;;;8262622;28;20137;-86
2022/09/07 06:39:00;;;;;;;11.77;3.80;;;;;;;;;;8264943;28;20050;-87
2022/09/07 06:43:03;;;;;;;6.82;3.60;;;;;;;;;;8265032;28;20058;-87
2022/09/07 06:47:06;;;;;;;8.65;3.70;;;;;;;;;;8277579;28;20124;-86
2022/09/07 06:51:13;;;;;;;11.48;4.03;;;;;;;;;;8265356;28;20054;-86
2022/09/07 06:55:17;;;;;;;9.05;3.53;;;;;;;;;;8270378;28;20046;-87
2022/09/07 06:59:19;;;;;;;9.70;3.50;;;;;;;;;;8259550;28;20046;-86
2022/09/07 07:03:22;;;;;;;9.40;3.40;;;;;;;;;;8277497;28;20054;-87
2022/09/07 07:07:25;;;;;;;10.00;3.47;;;;;;;;;;8256601;28;20061;-87
2022/09/07 07:11:30;;;;;;;11.73;3.90;;;;;;;;;;8258681;28;20212;-87
2022/09/07 07:15:32;;;;;;;14.73;4.47;;;;;;;;;;8260664;28;20053;-86
2022/09/07 07:19:34;;;;;;;17.15;4.60;;;;;;;;;;8264569;28;20488;-86
2022/09/07 07:23:37;;;;;;;12.35;4.05;;;;;;;;;;8287260;28;20105;-86
2022/09/07 07:27:41;;;;;;;14.35;4.50;;;;;;;;;;8263846;28;20064;-86
2022/09/07 07:31:44;;;;;;;10.57;3.97;;;;;;;;;;8269315;28;20046;-85
2022/09/07 07:35:46;;;;;;;12.73;3.70;;;;;;;;;;8267059;28;20096;-85
2022/09/07 07:39:50;;;;;;;17.30;4.15;;;;;;;;;;8276461;28;20525;-85
2022/09/07 07:43:57;;;;;;;12.43;4.38;;;;;;;;;;8262930;28;20123;-86
2022/09/07 07:47:59;;;;;;;11.75;3.35;;;;;;;;;;8258759;28;20453;-86
2022/09/07 07:52:02;;;;;;;15.48;4.18;;;;;;;;;;8259687;28;20101;-85
2022/09/07 07:56:06;;;;;;;17.00;4.07;;;;;;;;;;8273406;28;20125;-86
2022/09/07 08:00:13;;;;;;;12.40;3.90;;;;;;;;;;8262831;28;20683;-86
2022/09/07 08:04:16;;;;;;;16.95;5.22;;;;;;;;;;8256643;28;20061;-85
2022/09/07 08:08:19;;;;;;;10.07;3.78;;;;;;;;;;8256533;28;20042;-86
2022/09/07 08:12:21;;;;;;;11.73;4.07;;;;;;;;;;8262576;28;20054;-86
2022/09/07 08:16:25;;;;;;;8.27;2.92;;;;;;;;;;8270413;28;20061;-86
2022/09/07 08:20:27;;;;;;;10.95;3.05;;;;;;;;;;8262331;28;20438;-86
2022/09/07 08:24:31;;;;;;;9.18;3.05;;;;;;;;;;8261300;28;20054;-85
2022/09/07 08:28:37;;;;;;;9.90;3.30;;;;;;;;;;8256058;28;20648;-86
2022/09/07 08:32:40;;;;;;;7.15;3.10;;;;;;;;;;8260357;28;20732;-86
2022/09/07 08:36:43;;;;;;;7.05;3.55;;;;;;;;;;8257227;28;20054;-85
2022/09/07 08:40:46;;;;;;;5.82;2.80;;;;;;;;;;8258804;28;20053;-86
2022/09/07 08:44:52;;;;;;;9.23;4.30;;;;;;;;;;8261010;28;20094;-86
2022/09/07 08:48:58;;;;;;;8.38;3.13;;;;;;;;;;8260615;28;20050;-87
2022/09/07 08:53:06;;;;;;;7.20;3.30;;;;;;;;;;8268028;28;20077;-86
2022/09/07 08:57:09;;;;;;;11.15;3.80;;;;;;;;;;8260960;28;20054;-85
2022/09/07 09:01:13;;;;;;;9.13;5.28;;;;;;;;;;8254433;28;20055;-86
2022/09/07 09:05:27;;;;;;;13.32;5.97;;;;;;;;;;8255324;28;20046;-86
2022/09/07 09:09:45;;;;;;;8.18;2.97;;;;;;;;;;8260967;28;20145;-86
2022/09/07 09:13:56;;;;;;;6.80;2.80;;;;;;;;;;8258219;28;20049;-86
2022/09/07 09:18:06;;;;;;;6.82;3.25;;;;;;;;;;8260193;28;20061;-86
2022/09/07 09:22:13;;;;;;;9.65;3.42;;;;;;;;;;8260122;28;20051;-85
2022/09/07 09:26:22;;;;;;;6.25;2.97;;;;;;;;;;8261456;28;20050;-86
2022/09/07 09:30:25;;;;;;;8.80;3.80;;;;;;;;;;8264525;28;20049;-85
2022/09/07 09:34:27;;;;;;;9.73;3.38;;;;;;;;;;8255491;28;20131;-85
2022/09/07 09:38:34;;;;;;;7.70;2.78;;;;;;;;;;8264370;28;20084;-85
2022/09/07 09:42:37;;;;;;;9.30;2.95;;;;;;;;;;8257081;28;20050;-85
2022/09/07 09:46:40;;;;;;;10.45;3.85;;;;;;;;;;8259609;28;20045;-87
2022/09/07 09:50:47;;;;;;;11.07;3.53;;;;;;;;;;8271676;28;20050;-86
2022/09/07 09:54:55;;;;;;;6.97;2.63;;;;;;;;;;8263838;28;20092;-86
2022/09/07 09:59:12;;;;;;;5.72;2.38;;;;;;;;;;8262165;28;20042;-88
2022/09/07 10:03:18;;;;;;;7.30;2.67;;;;;;;;;;8275936;28;20057;-83
2022/09/07 10:07:25;;;;;;;5.32;2.47;;;;;;;;;;8258635;28;20046;-89
2022/09/07 10:11:43;;;;;;;3.75;2.00;;;;;;;;;;8252988;28;20058;-90
2022/09/07 10:15:51;;;;;;;3.97;2.15;;;;;;;;;;8245705;28;20184;-87
2022/09/07 10:19:59;;;;;;;4.72;2.35;;;;;;;;;;8255890;28;20038;-85
2022/09/07 10:24:15;;;;;;;6.60;2.63;;;;;;;;;;8261904;28;20471;-88
2022/09/07 10:28:20;;;;;;;5.55;2.90;;;;;;;;;;8255389;28;20050;-87
2022/09/07 10:32:28;;;;;;;5.82;2.55;;;;;;;;;;8257602;28;20437;-89
2022/09/07 10:36:40;;;;;;;6.20;2.30;;;;;;;;;;8257795;28;20494;-88
2022/09/07 10:40:46;;;;;;;6.80;2.72;;;;;;;;;;8255501;28;20054;-91
2022/09/07 10:45:00;;;;;;;8.15;2.50;;;;;;;;;;8250885;28;20055;-92
2022/09/07 10:49:19;;;;;;;5.47;2.25;;;;;;;;;;8254619;28;20081;-87
2022/09/07 10:53:37;;;;;;;6.22;2.78;;;;;;;;;;8261855;28;20046;-90
2022/09/07 10:57:51;;;;;;;4.07;2.17;;;;;;;;;;8256562;28;20054;-90
2022/09/07 11:02:04;;;;;;;4.38;2.30;;;;;;;;;;8253253;28;20122;-91
2022/09/07 11:06:16;;;;;;;4.57;2.70;;;;;;;;;;8261175;28;20482;-88
2022/09/07 11:10:28;;;;;;;6.68;2.65;;;;;;;;;;8258486;28;20101;-88
2022/09/07 11:14:51;;;;;;;5.65;2.60;;;;;;;;;;8256500;28;20513;-86
2022/09/07 11:18:58;;;;;;;9.02;2.45;;;;;;;;;;8250074;28;20124;-87
2022/09/07 11:23:08;;;;;;;8.23;3.08;;;;;;;;;;8253532;28;20483;-85
2022/09/07 11:27:16;;;;;;;4.97;2.60;;;;;;;;;;8249238;28;20050;-88
2022/09/07 11:31:23;;;;;;;6.20;2.42;;;;;;;;;;8267641;28;20123;-85
2022/09/07 11:35:43;;;;;;;6.20;2.75;;;;;;;;;;8258960;28;20043;-87
2022/09/07 11:39:51;;;;;;;7.30;3.17;;;;;;;;;;8251750;28;20053;-90
2022/09/07 11:44:00;;;;;;;6.72;2.80;;;;;;;;;;8252970;28;20062;-87
2022/09/07 11:48:10;;;;;;;5.57;2.80;;;;;;;;;;8253935;28;20447;-86
2022/09/07 11:52:27;;;;;;;20.65;6.32;;;;;;;;;;8248941;28;20553;-87
2022/09/07 11:56:35;;;;;;;13.63;4.70;;;;;;;;;;8253599;28;20042;-83
2022/09/07 12:00:48;;;;;;;8.40;2.90;;;;;;;;;;8246114;28;20073;-90
2022/09/07 12:05:11;;;;;;;5.22;2.72;;;;;;;;;;8244927;28;20051;-88
2022/09/07 12:09:35;;;;;;;9.48;2.95;;;;;;;;;;8246846;28;20126;-89
2022/09/07 12:14:12;;;;;;;8.68;2.70;;;;;;;;;;8252446;28;20046;-85
2022/09/07 12:18:26;;;;;;;10.20;3.03;;;;;;;;;;8252658;28;20094;-85
2022/09/07 12:22:29;;;;;;;5.55;2.50;;;;;;;;;;8256458;28;20051;-85
2022/09/07 12:26:55;;;;;;;9.70;2.63;;;;;;;;;;8254424;28;20450;-85
2022/09/07 12:31:03;;;;;;;6.85;2.70;;;;;;;;;;8245144;28;20057;-85
2022/09/07 12:35:40;;;;;;;7.63;3.13;;;;;;;;;;8246260;28;20345;-85
2022/09/07 12:39:44;;;;;;;6.75;2.97;;;;;;;;;;8255264;28;20054;-85
2022/09/07 12:44:07;;;;;;;6.97;2.88;;;;;;;;;;8244192;28;20145;-86
2022/09/07 12:48:27;;;;;;;5.30;2.70;;;;;;;;;;8266403;28;20053;-88
2022/09/07 12:53:04;;;;;;;7.25;2.90;;;;;;;;;;8279620;28;20533;-87
2022/09/07 12:57:23;;;;;;;6.72;2.70;;;;;;;;;;8278717;28;20052;-88
2022/09/07 13:01:49;;;;;;;5.18;2.42;;;;;;;;;;8280227;28;20054;-87
2022/09/07 13:05:59;;;;;;;5.85;2.60;;;;;;;;;;8275775;28;20042;-87
2022/09/07 13:10:03;;;;;;;5.28;2.40;;;;;;;;;;8257284;28;20058;-88
2022/09/07 13:14:17;;;;;;;7.40;2.78;;;;;;;;;;8277217;28;20112;-88
2022/09/07 13:18:45;;;;;;;6.25;2.47;;;;;;;;;;8282761;28;20068;-87
2022/09/07 13:23:08;;;;;;;6.63;2.15;;;;;;;;;;8270705;28;20045;-87
2022/09/07 13:27:51;;;;;;;6.70;2.50;;;;;;;;;;8273322;28;20590;-87
2022/09/07 13:32:06;;;;;;;8.60;3.92;;;;;;;;;;8256543;28;20053;-89
2022/09/07 13:36:24;;;;;;;6.43;2.92;;;;;;;;;;8258689;28;20046;-89
2022/09/07 13:40:30;;;;;;;7.57;3.60;;;;;;;;;;8277992;28;20104;-89
2022/09/07 13:44:34;;;;;;;5.70;2.35;;;;;;;;;;8287525;28;20384;-88
2022/09/07 13:48:41;;;;;;;4.68;2.60;;;;;;;;;;8275497;28;20042;-87
2022/09/07 13:53:07;;;;;;;6.63;2.38;;;;;;;;;;8269078;28;20039;-87
2022/09/07 13:57:18;;;;;;;6.00;2.72;;;;;;;;;;8242007;28;20046;-88
2022/09/07 14:01:23;;;;;;;4.65;2.50;;;;;;;;;;8244870;28;20438;-88
2022/09/07 14:05:26;;;;;;;7.20;2.67;;;;;;;;;;8244614;28;20054;-86
2022/09/07 14:09:32;;;;;;;6.25;2.65;;;;;;;;;;8262706;28;20173;-88
2022/09/07 14:13:35;;;;;;;5.50;2.40;;;;;;;;;;8264453;28;20054;-87
2022/09/07 14:17:38;;;;;;;8.30;2.65;;;;;;;;;;8234921;28;20051;-88
2022/09/07 14:21:57;;;;;;;14.00;4.05;;;;;;;;;;8235728;28;20046;-87
2022/09/07 14:26:17;;;;;;;9.27;2.38;;;;;;;;;;8244745;28;20043;-89
2022/09/07 14:30:27;;;;;;;9.80;2.70;;;;;;;;;;8259159;28;20050;-87
2022/09/07 14:34:34;;;;;;;9.82;3.35;;;;;;;;;;8259568;28;21387;-88
2022/09/07 14:38:40;;;;;;;10.90;2.75;;;;;;;;;;8252647;28;20050;-88
2022/09/07 14:42:48;;;;;;;7.43;2.75;;;;;;;;;;8267613;28;20058;-87
2022/09/07 14:46:58;;;;;;;6.45;2.50;;;;;;;;;;8263382;28;20430;-87
2022/09/07 14:51:03;;;;;;;7.25;3.28;;;;;;;;;;8255806;28;20136;-86
2022/09/07 14:55:39;;;;;;;7.85;2.67;;;;;;;;;;8270593;28;20148;-86
2022/09/07 15:00:12;;;;;;;6.60;2.50;;;;;;;;;;8269912;28;20070;-85
2022/09/07 15:04:20;;;;;;;8.32;2.70;;;;;;;;;;8243700;28;20730;-86
2022/09/07 15:08:41;;;;;;;7.13;3.00;;;;;;;;;;8257181;28;20098;-88
2022/09/07 15:13:21;;;;;;;8.48;2.75;;;;;;;;;;8254170;28;20043;-87
2022/09/07 15:17:35;;;;;;;5.05;2.42;;;;;;;;;;8247406;28;20065;-86
2022/09/07 15:21:41;;;;;;;7.22;3.22;;;;;;;;;;8260088;28;20050;-85
2022/09/07 15:25:52;;;;;;;5.55;2.50;;;;;;;;;;8261411;28;20121;-86
2022/09/07 15:29:58;;;;;;;6.75;2.85;;;;;;;;;;8250209;28;20046;-85
2022/09/07 15:34:33;;;;;;;6.03;2.65;;;;;;;;;;8268828;28;20489;-85
2022/09/07 15:38:39;;;;;;;6.90;2.72;;;;;;;;;;8264524;28;20478;-87
2022/09/07 15:42:44;;;;;;;6.40;2.53;;;;;;;;;;8256639;28;20201;-87
2022/09/07 15:46:49;;;;;;;6.15;2.58;;;;;;;;;;8264229;28;20050;-86
2022/09/07 15:51:02;;;;;;;6.35;2.47;;;;;;;;;;8267812;28;20414;-86
2022/09/07 15:59:31;;;;;;;4.43;2.80;;;;;;;;;;8258907;28;20064;-86
2022/09/07 16:03:37;;;;;;;4.80;2.33;;;;;;;;;;8257929;28;20137;-88
2022/09/07 16:07:46;;;;;;;6.88;2.95;;;;;;;;;;8259611;28;20065;-87
2022/09/07 16:12:00;;;;;;;5.80;2.88;;;;;;;;;;8256814;28;20186;-88
2022/09/07 16:16:09;;;;;;;7.82;2.50;;;;;;;;;;8256414;28;20051;-87
2022/09/07 16:20:11;;;;;;;7.20;2.78;;;;;;;;;;8249366;28;20078;-92
2022/09/07 16:24:16;;;;;;;4.93;2.42;;;;;;;;;;8253291;28;20050;-88
2022/09/07 16:28:19;;;;;;;7.90;2.72;;;;;;;;;;8251549;28;20061;-88
2022/09/07 16:32:22;;;;;;;6.68;2.60;;;;;;;;;;8256165;28;20109;-90
2022/09/07 16:36:25;;;;;;;5.47;2.40;;;;;;;;;;8261017;28;20486;-90
2022/09/07 16:40:29;;;;;;;9.30;2.90;;;;;;;;;;8258594;28;20062;-86
2022/09/07 16:44:33;;;;;;;8.93;3.30;;;;;;;;;;8274214;28;20081;-84
2022/09/07 16:48:36;;;;;;;10.13;4.05;;;;;;;;;;8268837;28;20056;-84
2022/09/07 16:52:39;;;;;;;8.07;3.00;;;;;;;;;;8264562;28;20046;-86
2022/09/07 16:56:43;;;;;;;7.00;3.38;;;;;;;;;;8258999;28;20557;-85
2022/09/07 17:00:46;;;;;;;13.30;4.88;;;;;;;;;;8254112;28;20046;-89
2022/09/07 17:04:49;;;;;;;10.48;4.25;;;;;;;;;;8256565;28;20596;-90
2022/09/07 17:08:53;;;;;;;14.93;6.45;;;;;;;;;;8255639;28;20490;-85
2022/09/07 17:12:57;;;;;;;15.02;5.78;;;;;;;;;;8246571;28;20161;-86
2022/09/07 17:17:00;;;;;;;17.80;7.50;;;;;;;;;;8257564;28;20084;-89
2022/09/07 17:21:02;;;;;;;13.63;7.55;;;;;;;;;;8256859;28;20058;-88
2022/09/07 17:25:06;;;;;;;27.55;16.48;;;;;;;;;;8258670;28;20096;-85
2022/09/07 17:29:10;;;;;;;17.88;9.35;;;;;;;;;;8238204;28;20055;-85
2022/09/07 17:33:15;;;;;;;61.13;24.17;;;;;;;;;;8252915;28;20053;-85
2022/09/07 17:37:17;;;;;;;22.40;11.65;;;;;;;;;;8253490;28;20458;-85
2022/09/07 17:41:27;;;;;;;12.88;7.70;;;;;;;;;;8263245;28;20092;-87
2022/09/07 17:45:41;;;;;;;;;;;;;;;;;;8265834;28;20058;-85
2022/09/07 17:49:54;;;;;;;18.27;8.65;;;;;;;;;;8282788;28;20477;-85
2022/09/07 17:54:01;;;;;;;18.88;10.32;;;;;;;;;;8249367;28;20042;-86
2022/09/07 17:58:04;;;;;;;13.88;8.15;;;;;;;;;;8249877;28;20168;-86
2022/09/07 18:02:11;;;;;;;19.52;9.20;;;;;;;;;;8258438;28;20053;-86
2022/09/07 18:06:15;;;;;;;24.00;13.75;;;;;;;;;;8272794;28;20089;-85
2022/09/07 18:10:17;;;;;;;32.50;17.65;;;;;;;;;;8270509;28;20049;-85
2022/09/07 18:14:20;;;;;;;27.25;15.23;;;;;;;;;;8267485;28;20092;-86
2022/09/07 18:18:24;;;;;;;19.05;11.82;;;;;;;;;;8253306;28;20063;-85
2022/09/07 18:22:27;;;;;;;13.88;7.75;;;;;;;;;;8257800;28;20050;-86
2022/09/07 18:26:29;;;;;;;9.32;4.43;;;;;;;;;;8250646;28;20518;-85
2022/09/07 18:30:35;;;;;;;10.55;4.28;;;;;;;;;;8284745;28;20046;-85
2022/09/07 18:34:39;;;;;;;7.40;4.35;;;;;;;;;;8299018;28;20201;-85
2022/09/07 18:38:43;;;;;;;9.05;4.13;;;;;;;;;;8301305;28;20465;-85
2022/09/07 18:42:47;;;;;;;77.32;29.75;;;;;;;;;;8304321;28;20072;-85
2022/09/07 18:46:52;;;;;;;147.18;44.30;;;;;;;;;;8291055;28;20053;-85
2022/09/07 18:50:56;;;;;;;82.63;28.05;;;;;;;;;;8293248;28;20101;-85
2022/09/07 18:54:59;;;;;;;30.60;10.43;;;;;;;;;;8298257;28;20096;-85
2022/09/07 18:59:04;;;;;;;38.33;17.40;;;;;;;;;;8297960;28;20053;-85
2022/09/07 19:03:12;;;;;;;31.15;12.82;;;;;;;;;;8302815;28;20129;-85
2022/09/07 19:07:19;;;;;;;25.30;10.05;;;;;;;;;;8302084;28;20078;-86
2022/09/07 19:11:24;;;;;;;18.20;9.68;;;;;;;;;;8287697;28;20138;-85
2022/09/07 19:15:27;;;;;;;28.98;12.43;;;;;;;;;;8287102;28;20042;-84
2022/09/07 19:19:33;;;;;;;30.38;12.68;;;;;;;;;;8270791;28;20043;-86
2022/09/07 19:23:38;;;;;;;15.77;8.18;;;;;;;;;;8288202;28;20502;-85
2022/09/07 19:27:41;;;;;;;16.98;6.97;;;;;;;;;;8278537;28;20687;-85
2022/09/07 19:32:02;;;;;;;13.00;6.70;;;;;;;;;;8292991;28;20050;-86
2022/09/07 19:36:06;;;;;;;31.38;8.90;;;;;;;;;;8295044;28;20132;-85
2022/09/07 19:40:12;;;;;;;32.13;9.95;;;;;;;;;;8298719;28;20061;-85
2022/09/07 19:44:15;;;;;;;20.70;7.30;;;;;;;;;;8284927;28;20073;-85
2022/09/07 19:48:18;;;;;;;20.15;10.88;;;;;;;;;;8287263;28;20069;-85
2022/09/07 19:52:21;;;;;;;51.88;14.90;;;;;;;;;;8291868;28;20541;-85
2022/09/07 19:56:25;;;;;;;54.40;13.70;;;;;;;;;;8291988;28;20402;-85
2022/09/07 20:00:28;;;;;;;10.93;4.45;;;;;;;;;;8296367;28;20046;-85
2022/09/07 20:04:32;;;;;;;12.75;6.28;;;;;;;;;;8283904;28;20050;-86
2022/09/07 20:08:39;;;;;;;14.25;6.38;;;;;;;;;;8282919;28;20058;-85
2022/09/07 20:12:43;;;;;;;18.23;9.80;;;;;;;;;;8285720;28;20450;-85
2022/09/07 20:16:45;;;;;;;15.50;6.47;;;;;;;;;;8292095;28;20054;-85
2022/09/07 20:20:48;;;;;;;9.75;4.55;;;;;;;;;;8292281;28;20078;-85
2022/09/07 20:24:51;;;;;;;11.23;5.68;;;;;;;;;;8295680;28;20049;-85
2022/09/07 20:28:56;;;;;;;11.07;4.35;;;;;;;;;;8279581;28;20054;-85
2022/09/07 20:32:58;;;;;;;9.32;4.78;;;;;;;;;;8278481;28;20042;-84
2022/09/07 20:37:01;;;;;;;8.55;4.50;;;;;;;;;;8290831;28;20495;-85
2022/09/07 20:41:03;;;;;;;12.68;4.55;;;;;;;;;;8282499;28;20054;-85
2022/09/07 20:45:09;;;;;;;11.52;5.07;;;;;;;;;;8280669;28;20055;-85
2022/09/07 20:49:12;;;;;;;6.75;3.85;;;;;;;;;;8284426;28;20099;-85
2022/09/07 20:53:14;;;;;;;11.57;5.20;;;;;;;;;;8287215;28;20046;-85
2022/09/07 20:57:17;;;;;;;13.57;4.30;;;;;;;;;;8292665;28;20053;-85
2022/09/07 21:01:21;;;;;;;10.57;4.80;;;;;;;;;;8294178;28;20042;-85
2022/09/07 21:05:23;;;;;;;12.30;6.05;;;;;;;;;;8277623;28;20042;-85
2022/09/07 21:09:26;;;;;;;10.05;5.13;;;;;;;;;;8285082;28;20046;-85
2022/09/07 21:13:28;;;;;;;9.90;4.78;;;;;;;;;;8285761;28;20542;-85
2022/09/07 21:17:32;;;;;;;7.85;4.28;;;;;;;;;;8291396;28;20406;-85
2022/09/07 21:21:37;;;;;;;11.55;4.32;;;;;;;;;;8291547;28;20108;-85
2022/09/07 21:25:43;;;;;;;8.85;4.47;;;;;;;;;;8292934;28;20046;-85
2022/09/07 21:29:46;;;;;;;10.18;4.63;;;;;;;;;;8285509;28;20510;-85
2022/09/07 21:33:54;;;;;;;12.18;5.30;;;;;;;;;;8283020;28;20504;-85
2022/09/07 21:37:56;;;;;;;10.48;4.45;;;;;;;;;;8282451;28;20044;-85
2022/09/07 21:41:59;;;;;;;14.98;5.18;;;;;;;;;;8257726;28;20100;-84
2022/09/07 21:46:06;;;;;;;8.63;4.57;;;;;;;;;;8264254;28;20133;-85
2022/09/07 21:50:10;;;;;;;11.57;4.70;;;;;;;;;;8264424;28;20465;-85
2022/09/07 21:54:12;;;;;;;9.90;5.00;;;;;;;;;;8264141;28;20050;-85
2022/09/07 21:58:15;;;;;;;17.10;5.72;;;;;;;;;;8264642;28;20054;-85
2022/09/07 22:02:17;;;;;;;13.50;5.38;;;;;;;;;;8264160;28;20050;-86
2022/09/07 22:06:21;;;;;;;13.43;6.00;;;;;;;;;;8263860;28;20517;-85
2022/09/07 22:10:24;;;;;;;13.43;6.30;;;;;;;;;;8264022;28;20073;-85
2022/09/07 22:14:26;;;;;;;14.73;6.32;;;;;;;;;;8263890;28;20050;-86
2022/09/07 22:18:29;;;;;;;15.80;6.82;;;;;;;;;;8264127;28;20046;-85
2022/09/07 22:22:34;;;;;;;19.00;6.55;;;;;;;;;;8263833;28;20050;-85
2022/09/07 22:26:38;;;;;;;18.30;8.32;;;;;;;;;;8264261;28;20046;-84
2022/09/07 22:30:40;;;;;;;22.10;7.15;;;;;;;;;;8263581;28;20438;-84
2022/09/07 22:34:43;;;;;;;23.10;7.30;;;;;;;;;;8263691;28;20047;-85
2022/09/07 22:38:48;;;;;;;13.40;5.22;;;;;;;;;;8263565;28;20053;-84
2022/09/07 22:42:51;;;;;;;16.65;6.90;;;;;;;;;;8263542;28;20129;-84
2022/09/07 22:46:53;;;;;;;17.98;6.93;;;;;;;;;;8266744;28;20050;-85
2022/09/07 22:50:57;;;;;;;14.75;5.93;;;;;;;;;;8269437;28;20512;-85
2022/09/07 22:55:01;;;;;;;19.33;6.68;;;;;;;;;;8269298;28;20050;-85
2022/09/07 22:59:07;;;;;;;13.75;5.95;;;;;;;;;;8269344;28;20050;-85
2022/09/07 23:03:09;;;;;;;15.05;6.35;;;;;;;;;;8269005;28;20056;-84
2022/09/07 23:07:12;;;;;;;15.43;6.25;;;;;;;;;;8269006;28;20045;-86
2022/09/07 23:11:16;;;;;;;15.77;5.63;;;;;;;;;;8268782;28;20510;-85
2022/09/07 23:15:18;;;;;;;13.75;5.57;;;;;;;;;;8268677;28;20046;-85
2022/09/07 23:19:21;;;;;;;12.82;6.05;;;;;;;;;;8268563;28;20046;-85
2022/09/07 23:23:23;;;;;;;10.70;5.55;;;;;;;;;;8268542;28;20479;-85
2022/09/07 23:27:27;;;;;;;13.25;5.95;;;;;;;;;;8268297;28;20043;-85
2022/09/07 23:31:32;;;;;;;12.90;6.20;;;;;;;;;;8268371;28;20046;-85
2022/09/07 23:35:34;;;;;;;11.82;5.22;;;;;;;;;;8268071;28;20470;-85
2022/09/07 23:39:39;;;;;;;14.07;5.55;;;;;;;;;;8268129;28;20414;-85
2022/09/07 23:43:42;;;;;;;10.77;5.13;;;;;;;;;;8267882;28;20058;-84
2022/09/07 23:47:45;;;;;;;9.93;4.97;;;;;;;;;;8267669;28;20049;-85
2022/09/07 23:51:47;;;;;;;8.95;5.25;;;;;;;;;;8267798;28;20050;-85
2022/09/07 23:55:50;;;;;;;11.15;5.47;;;;;;;;;;8267274;28;20077;-85
2022/09/07 23:59:54;;;;;;;16.52;5.30;;;;;;;;;;8267426;28;20054;-84
